Time;durP1;ratioP1;P1;durP2;ratioP2;P2;SDS_P1;SDS_P2;PMS_P1;PMS_P2;Temp;Humidity;BMP_temperature;BMP_pressure;BME280_temperature;BME280_humidity;BME280_pressure;Samples;Min_cycle;Max_cycle;Signal;HPM_P1;HPM_P2
2022/11/17 00:00:49;;;;;;;4.43;2.60;;;9.90;99.90;;;;;;4994023;28;20030;-90
2022/11/17 00:03:15;;;;;;;5.72;2.60;;;9.90;99.90;;;;;;4993994;28;20367;-88
2022/11/17 00:05:41;;;;;;;5.22;2.58;;;9.90;99.90;;;;;;4995153;28;20033;-88
2022/11/17 00:08:06;;;;;;;4.72;2.30;;;9.90;99.90;;;;;;4994892;28;20026;-89
2022/11/17 00:10:52;;;;;;;4.88;2.85;;;9.90;99.90;;;;;;4995065;28;20033;-89
2022/11/17 00:16:01;;;;;;;5.57;3.20;;;9.90;99.90;;;;;;5008021;28;20032;-87
2022/11/17 00:21:29;;;;;;;4.97;2.80;;;9.90;99.90;;;;;;5031850;28;20052;-88
2022/11/17 00:23:55;;;;;;;4.53;2.50;;;9.90;99.90;;;;;;5007098;28;20083;-91
2022/11/17 00:26:23;;;;;;;6.50;2.65;;;9.90;99.90;;;;;;5032135;28;20026;-89
2022/11/17 00:29:04;;;;;;;4.50;1.90;;;9.90;99.90;;;;;;5014750;28;20029;-88
2022/11/17 00:34:18;;;;;;;8.93;2.60;;;9.90;99.90;;;;;;5030346;28;20047;-92
2022/11/17 00:36:54;;;;;;;8.25;2.85;;;9.90;99.90;;;;;;5027162;28;20021;-90
2022/11/17 00:39:21;;;;;;;6.93;2.72;;;9.90;99.90;;;;;;5007916;28;20042;-90
2022/11/17 00:41:47;;;;;;;6.82;2.60;;;9.90;99.90;;;;;;5013507;28;20432;-89
2022/11/17 00:44:14;;;;;;;6.63;2.38;;;9.90;99.90;;;;;;5034518;28;20025;-93
2022/11/17 00:46:40;;;;;;;8.65;3.20;;;9.90;99.90;;;;;;5016841;28;20104;-90
2022/11/17 00:49:07;;;;;;;4.85;2.05;;;10.00;99.90;;;;;;5035567;28;20041;-92
2022/11/17 00:51:33;;;;;;;6.53;2.60;;;10.00;99.90;;;;;;5009991;28;20021;-90
2022/11/17 00:53:59;;;;;;;4.32;1.92;;;10.00;99.90;;;;;;5033922;28;20108;-92
2022/11/17 00:56:26;;;;;;;4.40;1.95;;;10.00;99.90;;;;;;5017535;28;20041;-92
2022/11/17 00:59:01;;;;;;;3.13;1.60;;;10.00;99.90;;;;;;5032398;28;20033;-91
2022/11/17 01:01:40;;;;;;;5.53;2.15;;;10.00;99.90;;;;;;5035044;28;20052;-93
2022/11/17 01:04:06;;;;;;;6.05;2.28;;;10.00;99.90;;;;;;5014415;28;20436;-93
2022/11/17 01:06:37;;;;;;;4.90;2.17;;;10.00;99.90;;;;;;5016344;28;20524;-92
2022/11/17 01:09:22;;;;;;;5.20;1.77;;;10.00;99.90;;;;;;5012132;28;20030;-91
2022/11/17 01:11:51;;;;;;;6.15;2.00;;;10.00;99.90;;;;;;5018591;28;20538;-94
2022/11/17 01:14:21;;;;;;;7.15;2.20;;;10.00;99.90;;;;;;5035325;28;20025;-94
2022/11/17 01:16:48;;;;;;;5.13;2.10;;;10.00;99.90;;;;;;5014614;28;20017;-94
2022/11/17 01:19:15;;;;;;;4.45;1.77;;;10.00;99.90;;;;;;5014837;28;20053;-94
2022/11/17 01:21:41;;;;;;;5.53;2.08;;;10.00;99.90;;;;;;4993861;28;20405;-94
2022/11/17 01:24:11;;;;;;;4.53;1.90;;;10.00;99.90;;;;;;4984190;28;20090;-93
2022/11/17 01:26:39;;;;;;;5.18;1.75;;;10.00;99.90;;;;;;5013837;28;20386;-94
2022/11/17 01:29:18;;;;;;;5.32;2.22;;;10.00;99.90;;;;;;5002797;28;20057;-96
2022/11/17 01:31:48;;;;;;;3.08;1.45;;;10.00;99.90;;;;;;5012026;28;20061;-93
2022/11/17 01:34:14;;;;;;;7.20;2.45;;;10.00;99.90;;;;;;4984602;28;20096;-94
2022/11/17 01:39:29;;;;;;;3.63;1.63;;;10.00;99.90;;;;;;5004451;28;20085;-95
2022/11/17 01:41:55;;;;;;;7.03;2.20;;;10.00;99.90;;;;;;4987028;28;20030;-94
2022/11/17 01:44:52;;;;;;;6.38;2.58;;;10.10;99.90;;;;;;4997160;28;20018;-95
2022/11/17 01:47:21;;;;;;;5.03;2.72;;;10.10;99.90;;;;;;5014458;28;20055;-93
2022/11/17 01:49:50;;;;;;;8.98;3.00;;;10.00;99.90;;;;;;5010750;28;20017;-95
2022/11/17 01:52:16;;;;;;;5.93;2.88;;;10.00;99.90;;;;;;4986859;28;20490;-94
2022/11/17 01:54:45;;;;;;;5.10;2.60;;;10.10;99.90;;;;;;4994184;28;20312;-93
2022/11/17 01:57:26;;;;;;;7.30;3.10;;;10.10;99.90;;;;;;4996223;28;20436;-93
2022/11/17 01:59:57;;;;;;;6.47;3.00;;;10.10;99.90;;;;;;5010397;28;20030;-93
2022/11/17 02:02:22;;;;;;;5.95;2.60;;;10.10;99.90;;;;;;4988799;28;20516;-95
2022/11/17 02:05:08;;;;;;;8.05;3.25;;;10.10;99.90;;;;;;4985217;28;20117;-92
2022/11/17 02:07:37;;;;;;;6.53;2.30;;;10.10;99.90;;;;;;4958007;28;20030;-92
2022/11/17 02:10:05;;;;;;;4.43;2.33;;;10.10;99.90;;;;;;5011612;28;20053;-93
2022/11/17 02:12:32;;;;;;;5.57;2.00;;;10.10;99.90;;;;;;4976232;28;20030;-94
2022/11/17 02:15:00;;;;;;;3.38;1.80;;;10.10;99.90;;;;;;4980178;28;20026;-93
2022/11/17 02:17:33;;;;;;;2.78;1.48;;;10.10;99.90;;;;;;4985506;28;20101;-95
2022/11/17 02:20:11;;;;;;;5.35;2.10;;;10.20;99.90;;;;;;4996242;28;20100;-91
2022/11/17 02:23:14;;;;;;;4.45;1.50;;;10.20;99.90;;;;;;4987475;28;20089;-94
2022/11/17 02:26:14;;;;;;;2.20;1.40;;;10.20;99.90;;;;;;5011722;28;20033;-92
2022/11/17 02:28:49;;;;;;;3.13;1.83;;;10.20;99.90;;;;;;4989032;28;20394;-92
2022/11/17 02:31:23;;;;;;;3.95;1.80;;;10.20;99.90;;;;;;4997234;28;20065;-92
2022/11/17 02:34:34;;;;;;;3.33;1.70;;;10.20;99.90;;;;;;5007667;28;20351;-93
2022/11/17 02:37:36;;;;;;;5.75;1.33;;;10.20;99.90;;;;;;5004223;28;20064;-92
2022/11/17 02:40:09;;;;;;;5.43;1.58;;;10.20;99.90;;;;;;4987759;28;20038;-89
2022/11/17 02:45:36;;;;;;;6.88;1.42;;;10.20;99.90;;;;;;4997183;28;20066;-92
2022/11/17 02:48:09;;;;;;;3.90;1.42;;;10.30;99.90;;;;;;5013670;28;20025;-91
2022/11/17 02:50:37;;;;;;;5.20;1.85;;;10.30;99.90;;;;;;5009751;28;20015;-91
2022/11/17 02:53:03;;;;;;;3.47;1.20;;;10.20;99.90;;;;;;4976706;28;20026;-89
2022/11/17 02:55:32;;;;;;;3.53;1.42;;;10.20;99.90;;;;;;4994092;28;20482;-89
2022/11/17 02:58:00;;;;;;;5.25;1.20;;;10.20;99.90;;;;;;4995682;28;20049;-92
2022/11/17 03:00:27;;;;;;;4.47;1.50;;;10.20;99.90;;;;;;4983945;28;20022;-90
2022/11/17 03:03:11;;;;;;;4.95;1.25;;;10.30;99.90;;;;;;4995897;28;20187;-91
2022/11/17 03:05:57;;;;;;;3.28;1.05;;;10.20;99.90;;;;;;4993965;28;20022;-90
2022/11/17 03:08:34;;;;;;;5.32;1.70;;;10.20;99.90;;;;;;4989283;28;20026;-87
2022/11/17 03:11:06;;;;;;;3.35;1.40;;;10.30;99.90;;;;;;5003820;28;20425;-89
2022/11/17 03:13:53;;;;;;;6.68;1.77;;;10.30;99.90;;;;;;4994894;28;20417;-89
2022/11/17 03:16:33;;;;;;;3.92;1.50;;;10.20;99.90;;;;;;4982542;28;20050;-91
2022/11/17 03:19:16;;;;;;;2.50;1.45;;;10.30;99.90;;;;;;4986252;28;20033;-88
2022/11/17 03:22:20;;;;;;;2.75;1.80;;;10.30;99.90;;;;;;5014750;28;20009;-90
2022/11/17 03:24:52;;;;;;;2.65;1.73;;;10.30;99.90;;;;;;5000728;28;20052;-91
2022/11/17 03:27:24;;;;;;;3.43;1.63;;;10.30;99.90;;;;;;4995260;28;20034;-89
2022/11/17 03:29:54;;;;;;;6.97;2.30;;;10.40;99.90;;;;;;5031956;28;20017;-91
2022/11/17 03:32:22;;;;;;;5.55;2.22;;;10.40;99.90;;;;;;5015461;28;20033;-89
2022/11/17 03:34:58;;;;;;;4.55;2.40;;;10.40;99.90;;;;;;5008360;28;20021;-90
2022/11/17 03:37:30;;;;;;;5.55;2.17;;;10.40;99.90;;;;;;5015363;28;20036;-88
2022/11/17 03:40:02;;;;;;;5.43;1.60;;;10.50;99.90;;;;;;5033521;28;20100;-89
2022/11/17 03:42:31;;;;;;;3.78;2.03;;;10.50;99.90;;;;;;5014113;28;20028;-90
2022/11/17 03:45:04;;;;;;;3.78;1.80;;;10.50;99.90;;;;;;5015296;28;20021;-88
2022/11/17 03:47:32;;;;;;;2.80;1.50;;;10.50;99.90;;;;;;5032802;28;20453;-89
2022/11/17 03:50:21;;;;;;;3.13;1.50;;;10.50;99.90;;;;;;5004208;28;20029;-89
2022/11/17 03:52:48;;;;;;;2.30;1.40;;;10.50;99.90;;;;;;5023418;28;20097;-89
2022/11/17 03:55:14;;;;;;;2.70;1.50;;;10.40;99.90;;;;;;5007161;28;20025;-88
2022/11/17 03:57:58;;;;;;;5.10;1.98;;;10.40;99.90;;;;;;5032683;28;20036;-89
2022/11/17 04:00:24;;;;;;;4.80;2.78;;;10.40;99.90;;;;;;5026063;28;20021;-89
2022/11/17 04:02:54;;;;;;;4.22;2.17;;;10.40;99.90;;;;;;5014570;28;20029;-90
2022/11/17 04:05:20;;;;;;;5.07;1.92;;;10.40;99.90;;;;;;5015133;28;20450;-88
2022/11/17 04:07:47;;;;;;;6.18;2.22;;;10.40;99.90;;;;;;5003705;28;20164;-88
2022/11/17 04:10:21;;;;;;;2.28;1.30;;;10.30;99.90;;;;;;5012716;28;20029;-88
2022/11/17 04:18:18;;;;;;;4.45;1.65;;;10.30;99.90;;;;;;5032699;28;20033;-90
2022/11/17 04:20:44;;;;;;;5.07;1.90;;;10.40;99.90;;;;;;5001258;28;20077;-89
2022/11/17 04:23:13;;;;;;;3.67;1.52;;;10.40;99.90;;;;;;5014502;28;20097;-88
2022/11/17 04:28:38;;;;;;;3.08;1.40;;;10.40;99.90;;;;;;4997080;28;20057;-89
2022/11/17 04:31:14;;;;;;;3.20;1.40;;;10.40;99.90;;;;;;5012177;28;20858;-91
2022/11/17 04:33:45;;;;;;;2.17;1.00;;;10.40;99.90;;;;;;4997626;28;20049;-89
2022/11/17 04:36:13;;;;;;;3.38;1.88;;;10.40;99.90;;;;;;4996514;28;20026;-88
2022/11/17 04:38:45;;;;;;;4.93;2.00;;;10.40;99.90;;;;;;4998240;28;20099;-89
2022/11/17 04:43:57;;;;;;;3.13;1.75;;;10.40;99.90;;;;;;5012644;28;20562;-89
2022/11/17 04:46:28;;;;;;;4.20;1.80;;;10.40;99.90;;;;;;4978678;28;20026;-90
2022/11/17 04:48:54;;;;;;;4.82;2.10;;;10.40;99.90;;;;;;4991610;28;20030;-89
2022/11/17 04:51:21;;;;;;;3.72;1.80;;;10.40;99.90;;;;;;5005082;28;20037;-89
2022/11/17 04:53:47;;;;;;;4.70;2.08;;;10.40;99.90;;;;;;5011215;28;20034;-90
2022/11/17 04:56:13;;;;;;;3.03;1.80;;;10.40;99.90;;;;;;4987266;28;20030;-88
2022/11/17 04:58:39;;;;;;;4.03;2.00;;;10.40;99.90;;;;;;5012048;28;20049;-90
2022/11/17 05:01:11;;;;;;;3.13;1.80;;;10.40;99.90;;;;;;4987151;28;20034;-89
2022/11/17 05:03:41;;;;;;;3.63;2.40;;;10.40;99.90;;;;;;4980295;28;20020;-89
2022/11/17 05:06:12;;;;;;;4.38;2.50;;;10.50;99.90;;;;;;4995195;28;20010;-88
2022/11/17 05:08:38;;;;;;;2.58;1.75;;;10.50;99.90;;;;;;4978368;28;20026;-90
2022/11/17 05:13:50;;;;;;;3.80;2.17;;;10.40;99.90;;;;;;4981384;28;20120;-89
2022/11/17 05:19:01;;;;;;;5.45;2.42;;;10.40;99.90;;;;;;5006228;28;20493;-89
2022/11/17 05:21:27;;;;;;;3.70;2.30;;;10.40;99.90;;;;;;5019531;28;20025;-90
2022/11/17 05:23:52;;;;;;;3.60;1.90;;;10.30;99.90;;;;;;5017617;28;20026;-91
2022/11/17 05:26:20;;;;;;;2.83;1.88;;;10.30;99.90;;;;;;5012718;28;20034;-90
2022/11/17 05:28:45;;;;;;;4.97;1.95;;;10.30;99.90;;;;;;5008042;28;20025;-90
2022/11/17 05:31:11;;;;;;;3.97;1.90;;;10.20;99.90;;;;;;5004704;28;20033;-91
2022/11/17 05:33:37;;;;;;;4.35;1.80;;;10.30;99.90;;;;;;5007174;28;20026;-90
2022/11/17 05:36:04;;;;;;;4.15;1.77;;;10.20;99.90;;;;;;4999838;28;20458;-92
2022/11/17 05:38:32;;;;;;;4.05;2.00;;;10.20;99.90;;;;;;5031671;28;20032;-92
2022/11/17 05:40:59;;;;;;;3.67;1.80;;;10.20;99.90;;;;;;5012455;28;20025;-93
2022/11/17 05:43:36;;;;;;;7.65;2.35;;;10.20;99.90;;;;;;5034601;28;20396;-92
2022/11/17 05:46:02;;;;;;;5.18;1.60;;;10.20;99.90;;;;;;5010979;28;20034;-92
2022/11/17 05:48:32;;;;;;;3.33;1.58;;;10.20;99.90;;;;;;5031918;28;20539;-93
2022/11/17 05:50:58;;;;;;;3.55;1.40;;;10.20;99.90;;;;;;5004000;28;20017;-91
2022/11/17 05:53:30;;;;;;;2.78;1.13;;;10.20;99.90;;;;;;5015006;28;20021;-92
2022/11/17 05:56:26;;;;;;;5.90;1.70;;;10.20;99.90;;;;;;5008173;28;20017;-92
2022/11/17 05:59:14;;;;;;;4.88;1.60;;;10.20;99.90;;;;;;5030914;28;20033;-93
2022/11/17 06:02:13;;;;;;;5.10;2.17;;;10.20;99.90;;;;;;5015707;28;20045;-90
2022/11/17 06:04:39;;;;;;;6.20;2.75;;;10.20;99.90;;;;;;5001736;28;20121;-92
2022/11/17 06:07:04;;;;;;;6.72;1.80;;;10.20;99.90;;;;;;5011573;28;20045;-92
2022/11/17 06:09:34;;;;;;;7.07;1.90;;;10.20;99.90;;;;;;5008058;28;20034;-93
2022/11/17 06:12:00;;;;;;;6.18;1.75;;;10.20;99.90;;;;;;5022000;28;20022;-93
2022/11/17 06:14:26;;;;;;;3.00;1.95;;;10.20;99.90;;;;;;5006382;28;20465;-93
2022/11/17 06:16:57;;;;;;;4.38;2.08;;;10.20;99.90;;;;;;5013979;28;20049;-92
2022/11/17 06:19:32;;;;;;;2.67;1.55;;;10.20;99.90;;;;;;5019284;28;20073;-94
2022/11/17 06:21:58;;;;;;;4.68;1.42;;;10.20;99.90;;;;;;5031141;28;20013;-93
2022/11/17 06:24:24;;;;;;;5.93;2.13;;;10.20;99.90;;;;;;5027696;28;20480;-91
2022/11/17 06:26:53;;;;;;;5.53;1.90;;;10.20;99.90;;;;;;5032505;28;20029;-92
2022/11/17 06:29:18;;;;;;;4.68;1.70;;;10.20;99.90;;;;;;5031228;28;20025;-91
2022/11/17 06:31:45;;;;;;;4.63;1.65;;;10.20;99.90;;;;;;5022158;28;20528;-92
2022/11/17 06:34:13;;;;;;;5.70;2.03;;;10.30;99.90;;;;;;5027426;28;20477;-91
2022/11/17 06:36:41;;;;;;;7.22;1.80;;;10.30;99.90;;;;;;5021879;28;20546;-92
2022/11/17 06:39:07;;;;;;;5.18;1.95;;;10.20;99.90;;;;;;5027115;28;20029;-91
2022/11/17 06:41:41;;;;;;;2.75;1.60;;;10.20;99.90;;;;;;5022058;28;20038;-93
2022/11/17 06:44:10;;;;;;;5.75;1.90;;;10.20;99.90;;;;;;5031261;28;20040;-94
2022/11/17 06:46:41;;;;;;;5.88;1.77;;;10.30;99.90;;;;;;5029031;28;20148;-93
2022/11/17 06:49:07;;;;;;;5.35;1.60;;;10.30;99.90;;;;;;5032428;28;20124;-94
2022/11/17 06:51:34;;;;;;;4.97;1.45;;;10.30;99.90;;;;;;5020277;28;20026;-92
2022/11/17 06:54:11;;;;;;;5.28;1.42;;;10.30;99.90;;;;;;5025585;28;20493;-91
2022/11/17 06:56:44;;;;;;;4.95;1.23;;;10.30;99.90;;;;;;5031591;28;20469;-91
2022/11/17 06:59:10;;;;;;;4.65;1.20;;;10.30;99.90;;;;;;5019994;28;20450;-91
2022/11/17 07:01:42;;;;;;;4.40;1.30;;;10.40;99.90;;;;;;5025687;28;20417;-91
2022/11/17 07:04:12;;;;;;;9.10;1.95;;;10.40;99.90;;;;;;5032747;28;20025;-90
2022/11/17 07:06:50;;;;;;;5.97;1.45;;;10.40;99.90;;;;;;5031953;28;20022;-91
2022/11/17 07:09:18;;;;;;;4.30;1.55;;;10.40;99.90;;;;;;5032870;28;20128;-91
2022/11/17 07:11:47;;;;;;;7.78;1.63;;;10.40;99.90;;;;;;5019212;28;20030;-91
2022/11/17 07:14:20;;;;;;;7.20;1.75;;;10.40;99.90;;;;;;5020335;28;20130;-90
2022/11/17 07:16:51;;;;;;;7.80;2.38;;;10.40;99.90;;;;;;5031941;28;20026;-91
2022/11/17 07:19:16;;;;;;;3.15;1.00;;;10.40;99.90;;;;;;5018720;28;20064;-91
2022/11/17 07:21:54;;;;;;;5.40;1.20;;;10.40;99.90;;;;;;5030977;28;20025;-89
2022/11/17 07:24:20;;;;;;;5.05;1.08;;;10.40;99.90;;;;;;5030840;28;20116;-91
2022/11/17 07:26:46;;;;;;;4.07;0.93;;;10.40;99.90;;;;;;5031348;28;20473;-91
2022/11/17 07:29:33;;;;;;;6.07;1.25;;;10.40;99.90;;;;;;5030931;28;20025;-92
2022/11/17 07:32:12;;;;;;;6.82;1.55;;;10.40;99.90;;;;;;5031362;28;20049;-91
2022/11/17 07:34:42;;;;;;;8.05;1.35;;;10.40;99.90;;;;;;5031596;28;20033;-93
2022/11/17 07:37:11;;;;;;;5.80;1.20;;;10.40;99.90;;;;;;5028472;28;20029;-91
2022/11/17 07:39:39;;;;;;;4.88;1.00;;;10.40;99.90;;;;;;5031561;28;20033;-92
2022/11/17 07:42:34;;;;;;;6.40;1.17;;;10.30;99.90;;;;;;5019840;28;20026;-91
2022/11/17 07:45:01;;;;;;;6.50;1.35;;;10.40;99.90;;;;;;5032237;28;20033;-91
2022/11/17 07:47:58;;;;;;;5.95;1.63;;;10.30;99.90;;;;;;5025342;28;20500;-91
2022/11/17 07:50:27;;;;;;;7.50;1.75;;;10.40;99.90;;;;;;5024443;28;20045;-91
2022/11/17 07:52:56;;;;;;;8.00;1.60;;;10.30;99.90;;;;;;5020915;28;20029;-93
2022/11/17 07:55:24;;;;;;;7.40;1.05;;;10.30;99.90;;;;;;5029193;28;20049;-91
2022/11/17 07:58:00;;;;;;;5.97;1.63;;;10.30;99.90;;;;;;5018492;28;20404;-91
2022/11/17 08:00:32;;;;;;;8.52;1.63;;;10.30;99.90;;;;;;5022870;28;20141;-92
2022/11/17 08:03:02;;;;;;;5.30;1.13;;;10.30;99.90;;;;;;5036873;28;20053;-92
2022/11/17 08:05:29;;;;;;;5.15;1.05;;;10.30;99.90;;;;;;5035130;28;20036;-92
2022/11/17 08:08:08;;;;;;;5.85;1.35;;;10.30;99.90;;;;;;5035612;28;20022;-92
2022/11/17 08:10:36;;;;;;;6.20;1.42;;;10.30;99.90;;;;;;5031865;28;20374;-91
2022/11/17 08:13:07;;;;;;;5.43;0.90;;;10.30;99.90;;;;;;5028212;28;20461;-91
2022/11/17 08:16:07;;;;;;;5.68;1.90;;;10.30;99.90;;;;;;5028019;28;20458;-92
2022/11/17 08:18:36;;;;;;;6.78;1.08;;;10.30;99.90;;;;;;5018294;28;20042;-93
2022/11/17 08:21:05;;;;;;;4.35;1.00;;;10.30;99.90;;;;;;5032207;28;20489;-91
2022/11/17 08:23:43;;;;;;;6.00;0.90;;;10.30;99.90;;;;;;5035117;28;20076;-91
2022/11/17 08:26:10;;;;;;;6.70;1.20;;;10.20;99.90;;;;;;5020861;28;20030;-90
2022/11/17 08:28:36;;;;;;;3.45;0.85;;;10.20;99.90;;;;;;5022727;28;20038;-92
2022/11/17 08:31:03;;;;;;;3.30;0.80;;;10.20;99.90;;;;;;5028560;28;20029;-92
2022/11/17 08:33:33;;;;;;;5.60;0.95;;;10.10;99.90;;;;;;5032536;28;20026;-91
2022/11/17 08:36:03;;;;;;;3.88;0.85;;;10.20;99.90;;;;;;5027439;28;20028;-91
2022/11/17 08:38:29;;;;;;;2.65;0.70;;;10.10;99.90;;;;;;5022753;28;20075;-92
2022/11/17 08:41:04;;;;;;;5.65;0.95;;;10.10;99.90;;;;;;5029663;28;20042;-92
2022/11/17 08:43:30;;;;;;;4.22;1.02;;;10.10;99.90;;;;;;5033017;28;20018;-92
2022/11/17 08:45:56;;;;;;;5.35;0.90;;;10.10;99.90;;;;;;5026773;28;20072;-91
2022/11/17 08:48:24;;;;;;;3.53;0.90;;;10.10;99.90;;;;;;5028016;28;20033;-90
2022/11/17 08:50:55;;;;;;;3.13;0.80;;;10.00;99.90;;;;;;5027485;28;20022;-92
2022/11/17 08:53:25;;;;;;;5.03;1.00;;;10.00;99.90;;;;;;5029691;28;20022;-92
2022/11/17 08:55:51;;;;;;;4.68;1.10;;;10.00;99.90;;;;;;5033803;28;20116;-91
2022/11/17 08:58:18;;;;;;;3.97;0.70;;;10.00;99.90;;;;;;5031184;28;20120;-90
2022/11/17 09:00:45;;;;;;;5.50;1.00;;;10.00;99.90;;;;;;5032730;28;20030;-92
2022/11/17 09:03:22;;;;;;;3.70;0.80;;;10.00;99.90;;;;;;5032925;28;20024;-91
2022/11/17 09:05:48;;;;;;;6.60;1.30;;;9.90;99.90;;;;;;5028909;28;20116;-91
2022/11/17 09:08:14;;;;;;;3.42;0.98;;;9.90;99.90;;;;;;5018508;28;20073;-91
2022/11/17 09:10:40;;;;;;;5.38;0.73;;;9.90;99.90;;;;;;5026455;28;20432;-91
2022/11/17 09:13:06;;;;;;;4.45;1.20;;;9.90;99.90;;;;;;5032358;28;20127;-90
2022/11/17 09:15:32;;;;;;;3.63;1.10;;;9.90;99.90;;;;;;5032980;28;20026;-91
2022/11/17 09:17:58;;;;;;;4.28;1.10;;;10.00;99.90;;;;;;5022460;28;20068;-93
2022/11/17 09:20:25;;;;;;;4.72;0.70;;;10.00;99.90;;;;;;5000274;28;20074;-92
2022/11/17 09:22:50;;;;;;;5.45;1.33;;;10.00;99.90;;;;;;4992764;28;20077;-92
2022/11/17 09:25:16;;;;;;;2.60;0.70;;;10.10;99.90;;;;;;4996793;28;20061;-91
2022/11/17 09:27:42;;;;;;;4.28;0.95;;;10.10;99.90;;;;;;4986026;28;20038;-91
2022/11/17 09:30:12;;;;;;;4.75;0.88;;;10.10;99.90;;;;;;4992612;28;20057;-91
2022/11/17 09:32:38;;;;;;;3.65;0.88;;;10.10;99.90;;;;;;5008501;28;20556;-90
2022/11/17 09:35:24;;;;;;;3.15;0.68;;;10.10;99.90;;;;;;4981529;28;20462;-92
2022/11/17 09:37:51;;;;;;;3.20;0.80;;;10.10;99.90;;;;;;4986363;28;20038;-93
2022/11/17 09:40:18;;;;;;;2.88;0.80;;;10.10;99.90;;;;;;5009440;28;20030;-93
2022/11/17 09:42:46;;;;;;;2.58;0.75;;;10.10;99.90;;;;;;4986069;28;20387;-94
2022/11/17 09:45:26;;;;;;;2.85;0.70;;;10.00;99.90;;;;;;5011804;28;20128;-92
2022/11/17 09:48:02;;;;;;;3.42;0.77;;;10.00;99.90;;;;;;4988984;28;20030;-91
2022/11/17 09:50:38;;;;;;;4.85;0.80;;;10.00;99.90;;;;;;4990863;28;20018;-92
2022/11/17 09:53:25;;;;;;;4.15;1.08;;;10.00;99.90;;;;;;4994436;28;20492;-92
2022/11/17 09:56:01;;;;;;;2.13;0.70;;;10.00;99.90;;;;;;5003974;28;20030;-90
2022/11/17 09:58:38;;;;;;;1.40;0.68;;;9.90;99.90;;;;;;5001100;28;20026;-91
2022/11/17 10:01:12;;;;;;;1.60;0.77;;;9.90;99.90;;;;;;4994927;28;20105;-91
2022/11/17 10:03:43;;;;;;;3.05;0.95;;;9.90;99.90;;;;;;4994618;28;20466;-92
2022/11/17 10:06:22;;;;;;;3.60;1.15;;;9.80;99.90;;;;;;4996321;28;20022;-93
2022/11/17 10:09:17;;;;;;;3.47;0.75;;;9.80;99.90;;;;;;4994466;28;20694;-93
2022/11/17 10:11:47;;;;;;;2.67;0.77;;;9.80;99.90;;;;;;4976109;28;20575;-93
2022/11/17 10:14:19;;;;;;;4.63;0.90;;;9.80;99.90;;;;;;5009898;28;20191;-92
2022/11/17 10:16:55;;;;;;;3.67;0.80;;;9.80;99.90;;;;;;4988656;28;20085;-92
2022/11/17 10:19:34;;;;;;;4.72;0.98;;;9.80;99.90;;;;;;5007678;28;20413;-93
2022/11/17 10:22:08;;;;;;;3.35;0.70;;;9.80;99.90;;;;;;4988214;28;20018;-92
2022/11/17 10:24:53;;;;;;;3.47;0.98;;;9.80;99.90;;;;;;4996431;28;20087;-90
2022/11/17 10:27:24;;;;;;;3.10;0.75;;;9.80;99.90;;;;;;4991084;28;20029;-91
2022/11/17 10:30:12;;;;;;;3.30;0.70;;;9.80;99.90;;;;;;5001908;28;20053;-92
2022/11/17 10:32:50;;;;;;;2.35;0.75;;;9.80;99.90;;;;;;5009302;28;20068;-93
2022/11/17 10:35:24;;;;;;;5.20;1.10;;;9.80;99.90;;;;;;4995954;28;20125;-94
2022/11/17 10:38:15;;;;;;;4.25;0.90;;;9.80;99.90;;;;;;4993150;28;20031;-91
2022/11/17 10:40:41;;;;;;;4.10;1.00;;;9.80;99.90;;;;;;4992156;28;20042;-92
2022/11/17 10:43:15;;;;;;;4.50;1.15;;;9.90;99.90;;;;;;4990712;28;20037;-92
2022/11/17 10:45:44;;;;;;;3.17;1.00;;;9.90;99.90;;;;;;4993530;28;20025;-91
2022/11/17 10:48:34;;;;;;;;;;;;;;;;;;;;;
2022/11/17 10:51:19;;;;;;;3.38;0.90;;;10.00;99.90;;;;;;5008113;28;20117;-91
2022/11/17 10:54:16;;;;;;;4.32;1.00;;;10.00;99.90;;;;;;4995162;28;20030;-90
2022/11/17 10:56:48;;;;;;;4.53;0.90;;;10.10;99.90;;;;;;4993169;28;20026;-91
2022/11/17 10:59:18;;;;;;;4.50;1.00;;;10.10;99.90;;;;;;4992717;28;20030;-92
2022/11/17 11:01:54;;;;;;;2.95;1.23;;;10.10;99.90;;;;;;4990554;28;20026;-91
2022/11/17 11:04:38;;;;;;;5.25;1.10;;;10.20;99.90;;;;;;4991862;28;20026;-92
2022/11/17 11:07:18;;;;;;;;;;;10.20;99.90;;;;;;4991003;28;20500;-91
2022/11/17 11:10:17;;;;;;;3.25;0.80;;;10.20;99.90;;;;;;4992516;28;19909;-90
2022/11/17 11:13:07;;;;;;;2.78;1.00;;;10.20;99.90;;;;;;4971968;28;20030;-91
2022/11/17 11:19:25;;;;;;;;;;;;;;;;;;;;;
2022/11/17 11:22:28;;;;;;;4.45;1.40;;;10.20;99.90;;;;;;5014639;28;20029;-92
2022/11/17 11:25:30;;;;;;;4.78;1.08;;;10.30;99.90;;;;;;5023180;28;20022;-92
2022/11/17 11:28:12;;;;;;;4.63;1.02;;;10.30;99.90;;;;;;5002990;28;20063;-92
2022/11/17 11:30:58;;;;;;;4.22;1.20;;;10.20;99.90;;;;;;5007867;28;20032;-91
2022/11/17 11:33:59;;;;;;;3.22;1.00;;;10.20;99.90;;;;;;5024029;28;20018;-91
2022/11/17 11:37:17;;;;;;;;;;;;;;;;;;;;;
2022/11/17 11:39:53;;;;;;;3.70;0.85;;;10.30;99.90;;;;;;4991524;28;20037;-91
2022/11/17 11:42:41;;;;;;;2.45;0.70;;;10.30;99.90;;;;;;5003008;28;20029;-91
2022/11/17 11:45:24;;;;;;;3.88;1.08;;;10.30;99.90;;;;;;4999576;28;20374;-92
2022/11/17 11:52:15;;;;;;;5.28;0.90;;;10.30;99.90;;;;;;5020316;28;20025;-91
2022/11/17 11:54:56;;;;;;;6.00;1.65;;;10.30;99.90;;;;;;5004806;28;20040;-91
2022/11/17 11:57:49;;;;;;;3.00;0.70;;;10.20;99.90;;;;;;5006065;28;20026;-91
2022/11/17 12:03:53;;;;;;;3.05;0.88;;;10.20;99.90;;;;;;4916490;28;20039;-92
2022/11/17 12:06:53;;;;;;;3.60;0.85;;;10.20;99.90;;;;;;5005718;28;20037;-92
2022/11/17 12:10:10;;;;;;;;;;;;;;;;;;;;;
2022/11/17 12:12:38;;;;;;;4.90;1.00;;;10.20;99.90;;;;;;5025365;28;20088;-94
2022/11/17 12:15:09;;;;;;;3.10;1.08;;;10.20;99.90;;;;;;4991568;28;20038;-92
2022/11/17 12:18:17;;;;;;;2.97;0.75;;;10.20;99.90;;;;;;5002095;28;20064;-94
2022/11/17 12:21:20;;;;;;;2.22;0.70;;;10.10;99.90;;;;;;5024239;28;20058;-91
2022/11/17 12:24:47;;;;;;;1.23;0.60;;;10.20;99.90;;;;;;5005537;28;20427;-93
2022/11/17 12:27:51;;;;;;;6.05;1.63;;;10.20;99.90;;;;;;5021274;28;20036;-91
2022/11/17 12:31:22;;;;;;;;;;;;;;;;;;;;;
2022/11/17 12:34:26;;;;;;;4.57;1.13;;;10.30;99.90;;;;;;4944409;29;20039;-94
2022/11/17 12:37:25;;;;;;;4.57;1.05;;;10.30;99.90;;;;;;4929287;29;20023;-93
2022/11/17 12:40:08;;;;;;;2.38;0.85;;;10.30;99.90;;;;;;4934705;29;20031;-92
2022/11/17 12:42:39;;;;;;;;;;;10.20;99.90;;;;;;5015207;28;20065;-93
2022/11/17 12:46:05;;;;;;;2.22;0.98;;;10.20;99.90;;;;;;5002460;28;19919;-93
2022/11/17 12:48:44;;;;;;;4.15;1.13;;;10.20;99.90;;;;;;5008758;28;20037;-92
2022/11/17 12:52:00;;;;;;;3.17;1.00;;;10.20;99.90;;;;;;5004077;28;20049;-93
2022/11/17 12:55:00;;;;;;;2.60;0.85;;;10.20;99.90;;;;;;4967817;28;20033;-93
2022/11/17 12:57:39;;;;;;;3.72;0.90;;;10.10;99.90;;;;;;4972097;28;20141;-93
2022/11/17 13:00:20;;;;;;;5.75;0.90;;;10.20;99.90;;;;;;5002574;28;20539;-91
2022/11/17 13:03:25;;;;;;;3.88;0.90;;;10.20;99.90;;;;;;5024195;28;20424;-92
2022/11/17 13:06:21;;;;;;;3.88;1.00;;;10.10;99.90;;;;;;5019441;28;20072;-94
2022/11/17 13:09:25;;;;;;;2.45;0.93;;;10.10;99.90;;;;;;5004694;28;20545;-93
2022/11/17 13:12:33;;;;;;;2.90;1.10;;;10.10;99.90;;;;;;4968717;28;20605;-93
2022/11/17 13:15:04;;;;;;;4.13;0.68;;;10.10;99.90;;;;;;5011187;28;20105;-94
2022/11/17 13:17:38;;;;;;;3.70;1.00;;;10.00;99.90;;;;;;5004656;28;20052;-93
2022/11/17 13:20:40;;;;;;;;;;;;;;;;;;;;;
2022/11/17 13:23:27;;;;;;;2.28;1.10;;;10.00;99.90;;;;;;5028349;28;20026;-93
2022/11/17 13:26:15;;;;;;;3.72;0.93;;;10.00;99.90;;;;;;5044627;28;20087;-92
2022/11/17 13:29:11;;;;;;;5.70;1.05;;;10.00;99.90;;;;;;5016828;28;20769;-92
2022/11/17 13:32:47;;;;;;;;;;;;;;;;;;;;;
2022/11/17 13:35:56;;;;;;;;;;;;;;;;;;;;;
2022/11/17 13:39:19;;;;;;;4.07;0.80;;;10.00;99.90;;;;;;5022049;28;20022;-92
2022/11/17 13:42:05;;;;;;;3.65;0.80;;;9.90;99.90;;;;;;5017369;28;20041;-91
2022/11/17 13:51:41;;;;;;;2.97;1.00;;;9.90;99.90;;;;;;4955577;28;20049;-93
2022/11/17 13:57:36;;;;;;;9.00;1.42;;;9.90;99.90;;;;;;5016231;28;20084;-91
2022/11/17 14:00:24;;;;;;;7.07;1.63;;;9.90;99.90;;;;;;5012783;28;20512;-92
2022/11/17 14:02:59;;;;;;;3.28;1.15;;;9.90;99.90;;;;;;4997007;28;20062;-91
2022/11/17 14:05:32;;;;;;;3.30;1.20;;;9.90;99.90;;;;;;4997528;28;20031;-92
2022/11/17 14:08:30;;;;;;;5.35;1.35;;;9.90;99.90;;;;;;4982362;28;20045;-94
2022/11/17 14:11:20;;;;;;;3.92;0.85;;;10.00;99.90;;;;;;4989011;28;20027;-92
2022/11/17 14:14:08;;;;;;;2.83;1.02;;;10.00;99.90;;;;;;4988668;28;20105;-92
2022/11/17 14:16:59;;;;;;;2.45;0.90;;;10.00;99.90;;;;;;4984592;28;20058;-94
2022/11/17 14:19:36;;;;;;;5.25;1.08;;;10.00;99.90;;;;;;4988510;28;20489;-92
2022/11/17 14:22:11;;;;;;;7.32;1.05;;;10.00;99.90;;;;;;4987458;28;20046;-92
2022/11/17 14:25:00;;;;;;;5.32;1.23;;;10.00;99.90;;;;;;4986927;28;20021;-93
2022/11/17 14:27:40;;;;;;;1.88;1.00;;;10.00;99.90;;;;;;4985846;28;20673;-91
2022/11/17 14:30:25;;;;;;;3.45;1.02;;;10.00;99.90;;;;;;4988548;28;20283;-93
2022/11/17 14:33:34;;;;;;;3.25;1.05;;;10.00;99.90;;;;;;4986878;28;20601;-93
2022/11/17 14:36:20;;;;;;;6.72;1.10;;;10.00;99.90;;;;;;4989364;28;20046;-90
2022/11/17 14:42:10;;;;;;;5.90;1.00;;;10.10;99.90;;;;;;4964328;28;20458;-93